Flight Track Log - Related Links

Times and Time Zones

All times are in EDT time to prevent confusion due to time zone crossing. See the QFA790 flight status page for this flight to view local times or setup timezone preferences in your user account.

Time Position Orientation Groundspeed Altitude Reporting Facility
EDT Latitude Longitude Course Direction KTS MPH feet Rate Location/Type
Sat 08:01:07 PM -33.9630 151.1800 166° South 165 190 300  Level FlightAware ADS-B
Sat 08:01:16 PM -33.9739 151.1819 187° South 172 198 1,100 1,600 Climbing Aus ATC (RADAR)
Sat 08:01:52 PM -34.0020 151.1780 182° South 212 244 1,500 2,143 Climbing FlightAware ADS-B
Sat 08:02:26 PM -34.0439 151.1804 182° South 232 267 3,600 2,550 Climbing Aus ATC (RADAR)
Sat 08:02:32 PM -34.0450 151.1810 182° South 229 264 3,200 1,000 Descending FlightAware ADS-B
Sat 08:03:02 PM -34.0800 151.1920 165° South 267 307 4,200 2,945 Climbing FlightAware ADS-B
Sat 08:03:27 PM -34.1110 151.2030 164° South 270 311 5,900 3,563 Climbing FlightAware ADS-B
Sat 08:04:06 PM -34.1604 151.1859 164° South 275 316 8,000 2,400 Climbing Aus ATC (RADAR)
Sat 08:04:07 PM -34.1570 151.1900 164° South 286 329 7,500 750 Descending FlightAware ADS-B
Sat 08:04:22 PM -34.1650 151.1690 245° Southwest 290 334 8,200 3,882 Climbing FlightAware ADS-B
Sat 08:04:41 PM -34.1619 151.1313 245° Southwest 274 315 9,700 3,000 Climbing Aus ATC (RADAR)
Sat 08:04:52 PM -34.1590 151.1230 245° Southwest 281 323 9,700 2,100 Level FlightAware ADS-B
Sat 08:05:21 PM -34.1349 151.0761 245° Southwest 280 322 11,100 1,800 Climbing Aus ATC (RADAR)
Sat 08:05:32 PM -34.1300 151.0660 245° Southwest 312 359 10,900 1,179 Descending FlightAware ADS-B
Sat 08:06:17 PM -34.0910 150.9940 303° West 357 411 12,200 2,188 Climbing FlightAware ADS-B
Sat 08:06:57 PM -34.0540 150.9250 303° West 365 420 14,000 3,188 Climbing FlightAware ADS-B
Sat 08:07:21 PM -34.0270 150.8759 303° West 359 413 15,600 2,700 Climbing Aus ATC (RADAR)
Sat 08:07:37 PM -34.0160 150.8560 303° West 372 428 15,800 2,000 Climbing FlightAware ADS-B
Sat 08:08:21 PM -33.9679 150.7686 303° West 381 438 17,600 1,733 Climbing Aus ATC (RADAR)
Sat 08:08:22 PM -33.9720 150.7760 303° West 395 455 17,100 2,100 Descending FlightAware ADS-B
Sat 08:08:41 PM -33.9476 150.7307 303° West 389 448 18,300 2,250 Climbing Aus ATC (RADAR)
Sat 08:09:02 PM -33.9300 150.6990 303° West 408 470 18,600 1,727 Climbing FlightAware ADS-B
Sat 08:09:47 PM -33.8840 150.6140 303° West 416 479 20,200 2,118 Climbing FlightAware ADS-B
Sat 08:10:27 PM -33.8400 150.5340 303° West 418 481 21,600 2,514 Climbing FlightAware ADS-B
Sat 08:11:01 PM -33.7992 150.4597 303° West 412 474 23,300 2,100 Climbing Aus ATC (RADAR)
Sat 08:11:07 PM -33.7970 150.4560 303° West 421 484 23,000 1,800 Descending FlightAware ADS-B
Sat 08:11:41 PM -33.7559 150.3804 303° West 417 480 24,500 1,733 Climbing Aus ATC (RADAR)
Sat 08:11:52 PM -33.7470 150.3660 303° West 426 490 24,300 1,400 Descending FlightAware ADS-B
Sat 08:12:11 PM -33.7234 150.3201 303° West 421 484 25,200 1,350 Climbing Aus ATC (RADAR)
Sat 08:12:32 PM -33.7070 150.2800 303° West 445 512 25,200 818 Level FlightAware ADS-B
Sat 08:13:17 PM -33.6770 150.1740 289° West 454 522 26,100 1,553 Climbing FlightAware ADS-B
Sat 08:13:57 PM -33.6500 150.0780 289° West 451 519 27,400 2,000 Climbing FlightAware ADS-B
Sat 08:14:17 PM -33.6360 150.0260 288° West 446 513 28,100 2,455 Climbing FlightAware ADS-B
Sat 08:14:41 PM -33.6198 149.9660 288° West 432 497 29,200 1,680 Climbing Aus ATC (RADAR)
Sat 08:15:07 PM -33.6050 149.9100 288° West 447 514 29,500 1,636 Climbing FlightAware ADS-B
Sat 08:15:25 PM -33.5910 149.8604 288° West 432 497 30,400 667 Climbing Aus ATC (RADAR)
Sat 08:15:52 PM -33.5780 149.8120 288° West 447 514 30,000  Descending FlightAware ADS-B
Sat 08:16:35 PM -33.5448 149.6953 288° West 441 507 30,400  Climbing Aus ATC (RADAR)
Sat 08:16:42 PM -33.5440 149.6950 288° West 451 519 30,000  Descending FlightAware ADS-B
Sat 08:17:06 PM -33.5165 149.6288 288° West 440 506 30,400  Climbing Aus ATC (RADAR)
Sat 08:17:37 PM -33.4940 149.5820 300° West 450 518 30,000  Descending FlightAware ADS-B
Sat 08:17:40 PM -33.4804 149.5531 300° West 441 507 30,400  Climbing Aus ATC (RADAR)
Sat 08:18:22 PM -33.4410 149.4700 300° West 444 511 30,000  Descending FlightAware ADS-B
Sat 08:19:06 PM -33.3937 149.3703 300° West 439 505 30,400  Climbing Aus ATC (RADAR)
Sat 08:19:07 PM -33.3940 149.3720 300° West 443 510 30,000  Descending FlightAware ADS-B
Sat 08:19:30 PM -33.3683 149.3166 300° West 438 504 30,400  Climbing Aus ATC (RADAR)
Sat 08:19:47 PM -33.3540 149.2870 300° West 443 510 30,000  Descending FlightAware ADS-B
Sat 08:20:06 PM -33.3323 149.2420 300° West 438 504 30,400  Climbing Aus ATC (RADAR)
Sat 08:20:32 PM -33.3070 149.1890 300° West 443 510 30,000 -364 Descending FlightAware ADS-B
Sat 08:21:12 PM -33.2650 149.1030 300° West 442 509 30,000  Level FlightAware ADS-B
Sat 08:21:52 PM -33.2250 149.0200 300° West 440 506 30,000 558 Level FlightAware ADS-B
Sat 08:21:55 PM -33.2197 149.0079 300° West 436 502 30,400 727 Climbing Aus ATC (RADAR)
Sat 08:22:25 PM -33.1889 148.9446 300° West 435 501 30,400 -649 Level Aus ATC (RADAR)
Sat 08:22:32 PM -33.1830 148.9330 300° West 436 502 30,000  Descending FlightAware ADS-B
Sat 08:23:00 PM -33.1536 148.8711 300° West 433 498 30,400  Climbing Aus ATC (RADAR)
Sat 08:23:17 PM -33.1380 148.8400 300° West 433 498 30,000  Descending FlightAware ADS-B
Sat 08:24:05 PM -33.0882 148.7363 300° West 428 493 30,400 353 Climbing Aus ATC (RADAR)
Sat 08:24:25 PM -33.0682 148.6953 300° West 426 490 30,400  Level Aus ATC (RADAR)
Sat 08:25:00 PM -33.0328 148.6230 300° West 426 490 30,400 -511 Level Aus ATC (RADAR)
Sat 08:25:12 PM -33.0260 148.6090 300° West 431 496 30,000  Descending FlightAware ADS-B
Sat 08:25:45 PM -32.9872 148.5296 300° West 430 495 30,400 381 Climbing Aus ATC (RADAR)
Sat 08:26:15 PM -32.9569 148.4671 300° West 430 495 30,400 -750 Level Aus ATC (RADAR)
Sat 08:26:17 PM -32.9600 148.4740 300° West 432 497 30,000  Descending FlightAware ADS-B
Sat 08:26:50 PM -32.9214 148.3947 300° West 429 494 30,400  Climbing Aus ATC (RADAR)
Sat 08:27:02 PM -32.9140 148.3790 300° West 433 498 30,000  Descending FlightAware ADS-B
Sat 08:27:24 PM -32.8857 148.3223 300° West 430 495 30,400  Climbing Aus ATC (RADAR)
Sat 08:27:42 PM -32.8720 148.2950 300° West 432 497 30,000  Descending FlightAware ADS-B
Sat 08:27:59 PM -32.8503 148.2497 300° West 430 495 30,400  Climbing Aus ATC (RADAR)
Sat 08:28:27 PM -32.8270 148.2020 300° West 433 498 30,000 -353 Descending FlightAware ADS-B
Sat 08:29:07 PM -32.7870 148.1210 300° West 432 497 30,000 333 Level FlightAware ADS-B
Sat 08:29:39 PM -32.7485 148.0430 300° West 429 494 30,400  Climbing Aus ATC (RADAR)
Sat 08:29:52 PM -32.7400 148.0270 300° West 432 497 30,000  Descending FlightAware ADS-B
Sat 08:30:14 PM -32.7128 147.9710 300° West 430 495 30,400  Climbing Aus ATC (RADAR)
Sat 08:30:37 PM -32.6950 147.9350 300° West 433 498 30,000  Descending FlightAware ADS-B
Sat 08:30:54 PM -32.6716 147.8887 300° West 430 495 30,400  Climbing Aus ATC (RADAR)
Sat 08:31:17 PM -32.6530 147.8510 300° West 432 497 30,000 -381 Descending FlightAware ADS-B
Sat 08:31:57 PM -32.6120 147.7700 301° West 431 496 30,000  Level FlightAware ADS-B
Sat 08:32:42 PM -32.5670 147.6780 300° West 430 495 30,000 234 Level FlightAware ADS-B
Sat 08:33:14 PM -32.5286 147.6018 300° West 427 491 30,300  Climbing Aus ATC (RADAR)
Sat 08:33:22 PM -32.5240 147.5940 300° West 428 493 30,000 -340 Descending FlightAware ADS-B
Sat 08:34:07 PM -32.4780 147.5020 301° West 424 488 30,000 269 Level FlightAware ADS-B
Sat 08:34:29 PM -32.4524 147.4507 301° West 422 486 30,300  Climbing Aus ATC (RADAR)
Sat 08:34:47 PM -32.4390 147.4240 301° West 420 483 30,000  Descending FlightAware ADS-B
Sat 08:35:04 PM -32.4182 147.3818 301° West 414 476 30,300  Climbing Aus ATC (RADAR)
Sat 08:35:27 PM -32.3990 147.3450 301° West 417 480 30,000  Descending FlightAware ADS-B
Sat 08:35:44 PM -32.3786 147.3037 301° West 411 473 30,300  Climbing Aus ATC (RADAR)
Sat 08:36:12 PM -32.3550 147.2570 301° West 414 476 30,000 -265 Descending FlightAware ADS-B
Sat 08:36:52 PM -32.3140 147.1770 301° West 413 475 30,000 250 Level FlightAware ADS-B
Sat 08:37:24 PM -32.2808 147.1097 301° West 409 471 30,300  Climbing Aus ATC (RADAR)
Sat 08:37:37 PM -32.2710 147.0910 301° West 413 475 30,000  Descending FlightAware ADS-B
Sat 08:37:59 PM -32.2466 147.0423 301° West 408 470 30,300  Climbing Aus ATC (RADAR)
Sat 08:38:17 PM -32.2320 147.0140 301° West 415 478 30,000 -310 Descending FlightAware ADS-B
Sat 08:38:57 PM -32.1930 146.9370 301° West 412 474 30,000 250 Level FlightAware ADS-B
Sat 08:39:29 PM -32.1572 146.8678 301° West 411 473 30,300  Climbing Aus ATC (RADAR)
Sat 08:39:42 PM -32.1470 146.8480 301° West 412 474 30,000 -340 Descending FlightAware ADS-B
Sat 08:40:22 PM -32.1070 146.7700 301° West 413 475 30,000  Level FlightAware ADS-B
Sat 08:41:07 PM -32.0630 146.6840 301° West 413 475 30,000  Level FlightAware ADS-B
Sat 08:41:37 PM -32.0340 146.6270 301° West 411 473 30,000 500 Level FlightAware ADS-B
Sat 08:41:43 PM -32.0232 146.6050 301° West 415 478 30,300 439 Climbing Aus ATC (RADAR)
Sat 08:42:18 PM -31.9878 146.5375 301° West 411 473 30,300 -409 Level Aus ATC (RADAR)
Sat 08:42:27 PM -31.9810 146.5250 301° West 410 472 30,000  Descending FlightAware ADS-B
Sat 08:42:48 PM -31.9554 146.4839 301° West 403 464 30,300 -109 Climbing Aus ATC (RADAR)
Sat 08:43:22 PM -31.9260 146.4170 303° West 413 475 29,900  Descending FlightAware ADS-B
Sat 08:43:23 PM -31.9198 146.4193 303° West 401 461 30,300 -2,100 Climbing Aus ATC (RADAR)
Sat 08:44:02 PM -31.8870 146.3420 301° West 408 470 28,500 -2,242 Descending FlightAware ADS-B
Sat 08:45:02 PM -31.8270 146.2270 302° West 419 482 26,600 -1,409 Descending FlightAware ADS-B
Sat 08:45:57 PM -31.7710 146.1200 302° West 420 483 25,800 -600 Descending FlightAware ADS-B
Sat 08:47:42 PM -31.6710 145.9290 302° West 427 491 25,000 -259 Descending FlightAware ADS-B
Sat 08:48:43 PM -31.6102 145.8712 286° West 30,000  Climbing Aus ATC (Calculated)
Sat 08:49:02 PM -31.5840 145.7620 301° West 436 502 25,000 -6,122 Descending FlightAware ADS-B
Sat 08:49:32 PM -31.5520 145.7010 302° West 437 503 25,000  Level FlightAware ADS-B
Sat 08:50:27 PM -31.4940 145.5920 302° West 436 502 25,000  Level FlightAware ADS-B
Sat 08:50:27 PM -31.5055 145.6685 290° West 30,000  Climbing Aus ATC (Calculated)
Sat 08:51:02 PM -31.4610 145.5270 302° West 436 502 25,000 -4,000 Descending FlightAware ADS-B
Sat 08:51:42 PM -31.4250 145.4580 301° West 436 502 25,000  Level FlightAware ADS-B
Sat 08:51:47 PM -31.4563 145.5737 294° West 30,000  Climbing Aus ATC (Calculated)
Sat 08:52:12 PM -31.4086 145.4819 286° West 30,000 -6,667 Level Aus ATC (Calculated)
Sat 08:52:32 PM -31.3810 145.3720 301° West 436 502 25,000 -5,000 Descending FlightAware ADS-B
Sat 08:53:12 PM -31.3460 145.3030 301° West 436 502 25,000  Level FlightAware ADS-B
Sat 08:53:52 PM -31.3100 145.2340 301° West 436 502 25,000  Level FlightAware ADS-B
Sat 08:53:57 PM -31.3160 145.3043 289° West 30,000  Climbing Aus ATC (Calculated)
Sat 08:54:32 PM -31.2750 145.1650 301° West 436 502 25,000 -162 Descending FlightAware ADS-B
Sat 08:55:42 PM -31.2289 145.1381 303° West 30,000  Climbing Aus ATC (Calculated)
Sat 08:57:00 PM -31.1611 145.0056 301° West  Level FlightAware Approximate
Sat 08:57:27 PM -31.1471 144.9826 303° West 30,000  Level Aus ATC (Calculated)
Sat 08:57:27 PM -31.1471 144.9826 303° West 30,000 -182 Level Aus ATC (Calculated)
Sat 08:59:00 PM -31.0662 144.8248 301° West  Level FlightAware Approximate
Sat 08:59:11 PM -31.0317 144.7644 303° West 30,000  Level Aus ATC (Calculated)
Sat 09:00:00 PM -31.0138 144.7231 301° West  Level FlightAware Approximate
Sat 09:00:51 PM -30.9268 144.5671 303° West 30,000  Level Aus ATC (Calculated)
Sat 09:01:00 PM -30.9363 144.5787 301° West  Level FlightAware Approximate
Sat 09:02:00 PM -30.8665 144.4496 301° West  Level FlightAware Approximate
Sat 09:02:31 PM -30.8315 144.3886 303° West 30,000  Level Aus ATC (Calculated)
Sat 09:04:00 PM -30.7537 144.2372 301° West  Level FlightAware Approximate
Sat 09:04:11 PM -30.7449 144.2272 303° West 30,000  Level Aus ATC (Calculated)
Sat 09:05:00 PM -30.7012 144.1353 301° West  Level FlightAware Approximate
Sat 09:05:56 PM -30.6400 144.0325 304° West 30,000  Level Aus ATC (Calculated)
Sat 09:06:00 PM -30.6494 144.0407 301° West  Level FlightAware Approximate
Sat 09:07:00 PM -30.5842 143.9229 301° West  Level FlightAware Approximate
Sat 09:07:53 PM -30.5480 143.8625 304° West 30,000  Level Aus ATC (Calculated)
Sat 09:08:00 PM -30.5318 143.8203 301° West  Level FlightAware Approximate
Sat 09:09:00 PM -30.4900 143.7476 300° West  Level FlightAware Approximate
Sat 09:09:26 PM -30.4673 143.7140 304° West 30,000  Level Aus ATC (Calculated)
Sat 09:10:00 PM -30.4381 143.6447 300° West  Level FlightAware Approximate
Sat 09:11:00 PM -30.3866 143.5513 300° West  Level FlightAware Approximate
Sat 09:11:10 PM -30.3612 143.5195 304° West 30,000  Level Aus ATC (Calculated)
Sat 09:12:55 PM -30.2459 143.3093 304° West 30,000 -365 Level Aus ATC (Calculated)
Sat 09:13:00 PM -30.2698 143.3273 299° West  Level FlightAware Approximate
Sat 09:14:00 PM -30.1991 143.1908 295° West  Level FlightAware Approximate
Sat 09:14:49 PM -30.1592 143.1519 305° West 30,000  Level Aus ATC (Calculated)
Sat 09:15:00 PM -30.1388 143.0929 306° West  Level Estimated
Sat 09:16:00 PM -30.0930 143.0322 303° West  Level FlightAware Approximate
Sat 09:16:12 PM -30.0614 142.9752 305° West 30,000  Level Aus ATC (Calculated)
Sat 09:16:35 PM -30.0206 142.9017 305° West 30,000 -577 Level Aus ATC (Calculated)
Sat 09:18:00 PM -29.9411 142.7587 303° West  Level FlightAware Approximate
Sat 09:18:25 PM -29.9287 142.7365 306° West 30,000  Level Aus ATC (Calculated)
Sat 09:18:49 PM -29.9057 142.6953 306° West 30,000 -775 Level Aus ATC (Calculated)
Sat 09:20:00 PM -29.8385 142.5755 303° West  Level FlightAware Approximate
Sat 09:20:15 PM -29.8148 142.5499 306° West 30,000  Level Aus ATC (Calculated)
Sat 09:22:00 PM -29.7995 142.5242 306° West  Level FlightAware Approximate
Sat 09:22:00 PM -29.7265 142.4093 306° West 30,000  Level Aus ATC (Calculated)
Sat 09:23:00 PM -29.6652 142.3120 306° West  Level FlightAware Approximate
Sat 09:23:44 PM -29.6410 142.2735 306° West 30,000  Level Aus ATC (Calculated)
Sat 09:24:52 PM -29.1960 141.5740 306° West 430 495 25,000 -2,655 Descending FlightAware ADS-B
Sat 09:25:00 PM -29.5627 142.1496 306° West  Level FlightAware Approximate
Sat 09:25:29 PM -29.5579 142.1420 306° West 30,000  Level Aus ATC (Calculated)
Sat 09:25:37 PM -29.1440 141.4930 306° West 431 496 25,000 -6,250 Descending FlightAware ADS-B
Sat 09:26:17 PM -29.0970 141.4200 306° West 432 497 25,000  Level FlightAware ADS-B
Sat 09:27:12 PM -29.0360 141.3240 306° West 432 497 25,000  Level FlightAware ADS-B
Sat 09:27:14 PM -29.4369 141.9514 306° West 30,000  Climbing Aus ATC (Calculated)
Sat 09:27:52 PM -28.9960 141.2610 306° West 432 497 25,000 -3,614 Descending FlightAware ADS-B
Sat 09:28:37 PM -28.9310 141.1620 307° West 431 496 25,000  Level FlightAware ADS-B
Sat 09:28:59 PM -29.3213 141.7701 306° West 30,000  Climbing Aus ATC (Calculated)
Sat 09:29:22 PM -28.8770 141.0790 307° West 431 496 25,000 -4,762 Descending FlightAware ADS-B
Sat 09:30:02 PM -28.8300 141.0070 307° West 431 496 25,000  Level FlightAware ADS-B
Sat 09:30:44 PM -29.2109 141.5977 306° West 30,000  Climbing Aus ATC (Calculated)
Sat 09:30:47 PM -28.7780 140.9280 307° West 432 497 25,000 -6,977 Descending FlightAware ADS-B
Sat 09:31:27 PM -28.7330 140.8580 307° West 433 498 25,000  Level FlightAware ADS-B
Sat 09:32:07 PM -28.6810 140.7790 307° West 434 499 25,000  Level FlightAware ADS-B
Sat 09:32:29 PM -29.1055 141.4337 306° West 30,000  Climbing Aus ATC (Calculated)
Sat 09:32:52 PM -28.6260 140.6950 307° West 434 499 25,000 -5,172 Descending FlightAware ADS-B
Sat 09:33:27 PM -28.5850 140.6330 307° West 434 499 25,000  Level FlightAware ADS-B
Sat 09:34:13 PM -29.0048 141.2777 306° West 30,000  Climbing Aus ATC (Calculated)
Sat 09:34:17 PM -28.5240 140.5390 306° West 433 498 25,000 -6,818 Descending FlightAware ADS-B
Sat 09:34:57 PM -28.4770 140.4680 307° West 433 498 25,000  Level FlightAware ADS-B
Sat 09:35:37 PM -28.4270 140.3920 307° West 434 499 25,000  Level FlightAware ADS-B
Sat 09:35:58 PM -28.9087 141.1293 307° West 30,000  Climbing Aus ATC (Calculated)
Sat 09:36:22 PM -28.3730 140.3110 307° West 434 499 25,000 -4,688 Descending FlightAware ADS-B
Sat 09:37:02 PM -28.3260 140.2400 307° West 434 499 25,000  Level FlightAware ADS-B
Sat 09:37:42 PM -28.2820 140.1730 307° West 434 499 25,000  Level FlightAware ADS-B
Sat 09:37:43 PM -28.8169 140.9881 307° West 30,000  Climbing Aus ATC (Calculated)
Sat 09:38:17 PM -28.2360 140.1040 307° West 435 501 25,000 -1,630 Descending FlightAware ADS-B
Sat 09:39:07 PM -28.1820 140.0230 307° West 25,000  Level FlightAware ADS-B
Sat 09:39:28 PM -28.7001 140.8090 307° West 30,000  Climbing Aus ATC (Calculated)
Sat 09:40:47 PM -28.0550 139.8320 307° West 437 503 25,000 -2,521 Descending FlightAware ADS-B
Sat 09:41:13 PM -28.5904 140.6415 307° West 30,000  Climbing Aus ATC (Calculated)
Sat 09:41:27 PM -28.0150 139.7690 306° West 437 503 25,000 -5,556 Descending FlightAware ADS-B
Sat 09:42:07 PM -27.9740 139.7060 306° West 437 503 25,000  Level FlightAware ADS-B
Sat 09:42:47 PM -27.9340 139.6430 306° West 437 503 25,000  Level FlightAware ADS-B
Sat 09:42:58 PM -28.4873 140.4848 306° West 30,000  Climbing Aus ATC (Calculated)
Sat 09:43:37 PM -27.8840 139.5640 306° West 437 503 25,000 -3,797 Descending FlightAware ADS-B
Sat 09:44:17 PM -27.8430 139.5010 306° West 437 503 25,000  Level FlightAware ADS-B
Sat 09:44:42 PM -28.3905 140.3381 307° West 30,000  Climbing Aus ATC (Calculated)
Sat 09:46:00 PM -28.3064 140.2111 307° West  Level FlightAware Approximate
Sat 09:46:27 PM -28.2996 140.2008 307° West 30,000  Level Aus ATC (Calculated)
Sat 09:46:32 PM -27.6300 139.2030 307° West 25,000 -197 Descending FlightAware ADS-B
Sat 09:48:12 PM -28.2143 140.0723 307° West 30,000  Climbing Aus ATC (Calculated)
Sat 09:49:05 PM -28.1743 140.0121 307° West 30,000 -211 Level Aus ATC (Calculated)
Sat 09:49:57 PM -28.1355 139.9540 307° West 30,000 -219 Level Aus ATC (Calculated)
Sat 09:51:00 PM -28.0669 139.8513 307° West  Level FlightAware Approximate
Sat 09:51:42 PM -28.0226 139.7850 307° West 30,000  Level Aus ATC (Calculated)
Sat 09:53:00 PM -27.9375 139.6581 307° West  Level FlightAware Approximate
Sat 09:53:27 PM -27.9201 139.6322 307° West 30,000  Level Aus ATC (Calculated)
Sat 09:53:59 PM -27.8891 139.5861 307° West 30,000 -271 Level Aus ATC (Calculated)
Sat 09:55:00 PM -27.8220 139.4865 307° West  Level FlightAware Approximate
Sat 09:55:46 PM -27.7726 139.4132 307° West 30,000  Level Aus ATC (Calculated)
Sat 09:56:16 PM -27.7197 139.3349 307° West 30,000 -311 Level Aus ATC (Calculated)
Sat 09:57:31 PM -27.6700 139.2616 307° West 30,000 -321 Level Aus ATC (Calculated)
Sat 09:57:31 PM -27.6700 139.2616 307° West 30,000 -348 Level Aus ATC (Calculated)
Sat 09:59:00 PM -27.5712 139.1161 307° West  Level FlightAware Approximate
Sat 09:59:16 PM -27.5768 139.1243 307° West 30,000  Level Aus ATC (Calculated)
Sat 09:59:46 PM -27.5360 139.0643 308° West 30,000 -397 Level Aus ATC (Calculated)
Sat 10:01:00 PM -27.4536 138.9436 308° West  Level FlightAware Approximate
Sat 10:01:01 PM -27.4594 138.9519 308° West 30,000  Level Aus ATC (Calculated)
Sat 10:02:16 PM -27.3923 138.8537 308° West 30,000 -461 Level Aus ATC (Calculated)
Sat 10:04:00 PM -27.2756 138.6835 308° West  Level FlightAware Approximate
Sat 10:04:01 PM -27.2746 138.6821 308° West 30,000  Level Aus ATC (Calculated)
Sat 10:05:46 PM -27.1420 138.4894 308° West 30,000 -637 Level Aus ATC (Calculated)
Sat 10:07:00 PM -27.0586 138.3688 308° West  Level FlightAware Approximate
Sat 10:07:30 PM -27.0312 138.3292 308° West 30,000  Level Aus ATC (Calculated)
Sat 10:08:41 PM -26.9203 138.1693 308° West 30,000 -1,145 Level Aus ATC (Calculated)
Sat 10:09:00 PM -26.9297 138.1829 308° West  Level FlightAware Approximate
Sat 10:09:37 PM -26.8886 138.1238 308° West 30,000  Level Aus ATC (Calculated)
Sat 10:10:18 PM -26.8253 138.0328 308° West 30,000 -2,222 Level Aus ATC (Calculated)
Sat 10:11:43 PM -26.7619 137.9420 308° West 30,000 -3,191 Level Aus ATC (Calculated)
Sat 10:11:52 PM -25.7530 136.5200 308° West 416 479 25,000 -6,122 Descending FlightAware ADS-B
Sat 10:12:32 PM -25.7050 136.4550 308° West 414 476 25,000  Level FlightAware ADS-B
Sat 10:12:52 PM -26.6666 137.8058 308° West 30,000  Climbing Aus ATC (Calculated)
Sat 10:13:17 PM -25.6490 136.3770 309° West 414 476 25,000 -4,615 Descending FlightAware ADS-B
Sat 10:13:37 PM -26.6348 137.7605 308° West 30,000  Climbing Aus ATC (Calculated)
Sat 10:13:57 PM -25.6020 136.3110 309° West 413 475 25,000 -5,000 Descending FlightAware ADS-B
Sat 10:14:27 PM -26.5712 137.6700 308° West 30,000  Climbing Aus ATC (Calculated)
Sat 10:14:37 PM -25.5520 136.2430 309° West 411 473 25,000 -5,455 Descending FlightAware ADS-B
Sat 10:14:45 PM -26.5394 137.6247 308° West 30,000  Climbing Aus ATC (Calculated)
Sat 10:15:22 PM -25.5040 136.1770 309° West 411 473 25,000 -3,896 Descending FlightAware ADS-B
Sat 10:16:02 PM -25.4540 136.1080 309° West 413 475 25,000 -75 Level FlightAware ADS-B
Sat 10:16:20 PM -26.4439 137.4891 308° West 30,000 -150 Climbing Aus ATC (Calculated)
Sat 10:16:42 PM -25.4040 136.0390 309° West 419 482 24,900 -5,284 Descending FlightAware ADS-B
Sat 10:17:27 PM -25.3500 135.9650 309° West 411 473 24,100 -1,059 Descending FlightAware ADS-B
Sat 10:18:07 PM -25.3020 135.9000 309° West 414 476 23,400 -988 Descending FlightAware ADS-B
Sat 10:18:52 PM -25.2450 135.8220 309° West 423 487 22,700 -918 Descending FlightAware ADS-B
Sat 10:19:14 PM -26.2843 137.2637 308° West 30,000 -900 Climbing Aus ATC (Calculated)
Sat 10:19:32 PM -25.2000 135.7600 309° West 420 483 22,100 -8,286 Descending FlightAware ADS-B
Sat 10:20:17 PM -25.1420 135.6810 309° West 423 487 21,300 -776 Descending FlightAware ADS-B
Sat 10:20:49 PM -26.1564 137.0837 308° West 30,000 -450 Climbing Aus ATC (Calculated)
Sat 10:20:57 PM -25.0930 135.6140 309° West 416 479 21,000 -11,250 Descending FlightAware ADS-B
Sat 10:21:37 PM -25.0470 135.5510 309° West 418 481 21,000  Level FlightAware ADS-B
Sat 10:22:17 PM -24.9980 135.4850 309° West 416 479 21,000  Level FlightAware ADS-B
Sat 10:23:02 PM -24.9400 135.4070 309° West 417 480 21,000  Level FlightAware ADS-B
Sat 10:23:27 PM -25.9963 136.8593 309° West 30,000  Climbing Aus ATC (Calculated)
Sat 10:23:47 PM -24.8890 135.3380 309° West 417 480 21,000 -10,800 Descending FlightAware ADS-B
Sat 10:24:17 PM -24.8500 135.2850 309° West 418 481 21,000  Level FlightAware ADS-B
Sat 10:24:52 PM -24.8070 135.2270 309° West 418 481 21,000  Level FlightAware ADS-B
Sat 10:25:11 PM -25.9000 136.7250 309° West 2,500  Descending Aus ATC (Calculated)
Sat 10:25:37 PM -24.7520 135.1520 309° West 419 482 21,000 16,818 Climbing FlightAware ADS-B
Sat 10:26:17 PM -24.7120 135.0810 302° West 421 484 21,000  Level FlightAware ADS-B
Sat 10:27:02 PM -24.6700 135.0040 301° West 423 487 21,000  Level FlightAware ADS-B
Sat 10:27:42 PM -24.6270 134.9250 301° West 425 489 21,000  Level FlightAware ADS-B
Sat 10:28:22 PM -24.5860 134.8510 301° West 426 490 21,000  Level FlightAware ADS-B
Sat 10:29:07 PM -24.5440 134.7730 301° West 426 490 21,000  Level FlightAware ADS-B
Sat 10:29:42 PM -24.5080 134.7080 301° West 424 488 21,000  Level FlightAware ADS-B
Sat 10:30:08 PM -25.6070 136.3188 306° West 2,500  Descending Aus ATC (Calculated)
Sat 10:30:32 PM -24.4560 134.6130 301° West 417 480 21,000 17,344 Climbing FlightAware ADS-B
Sat 10:31:12 PM -24.4140 134.5370 301° West 412 474 21,000  Level FlightAware ADS-B
Sat 10:31:33 PM -25.5091 136.1838 306° West 2,500  Descending Aus ATC (Calculated)
Sat 10:31:52 PM -24.3780 134.4710 301° West 412 474 21,000 17,344 Climbing FlightAware ADS-B
Sat 10:32:37 PM -24.3300 134.3850 301° West 412 474 21,000  Level FlightAware ADS-B
Sat 10:32:58 PM -25.4111 136.0491 305° West 2,500  Descending Aus ATC (Calculated)
Sat 10:33:17 PM -24.2920 134.3160 301° West 413 475 21,000 18,814 Climbing FlightAware ADS-B
Sat 10:33:57 PM -24.2530 134.2440 301° West 413 475 21,000 -494 Level FlightAware ADS-B
Sat 10:34:23 PM -25.3456 135.9594 305° West 2,500 -933 Descending Aus ATC (Calculated)
Sat 10:34:38 PM -25.3129 135.9146 304° West 2,500 56,211 Level Aus ATC (Calculated)
Sat 10:34:42 PM -24.2120 134.1710 301° West 380 437 20,300 23,045 Climbing FlightAware ADS-B
Sat 10:35:22 PM -24.1750 134.1050 301° West 353 406 19,400 -1,624 Descending FlightAware ADS-B
Sat 10:36:07 PM -24.1360 134.0350 301° West 346 398 18,000 -1,976 Descending FlightAware ADS-B
Sat 10:36:47 PM -24.1020 133.9740 301° West 341 392 16,600 -1,976 Descending FlightAware ADS-B
Sat 10:37:32 PM -24.0660 133.9080 301° West 341 392 15,200 -1,906 Descending FlightAware ADS-B
Sat 10:37:32 PM -25.1490 135.6908 303° West 2,500 -1,950 Descending Aus ATC (Calculated)
Sat 10:38:12 PM -24.0330 133.8490 301° West 338 389 13,900 7,725 Climbing FlightAware ADS-B
Sat 10:38:52 PM -24.0030 133.7960 302° West 331 381 12,800 -1,765 Descending FlightAware ADS-B
Sat 10:39:37 PM -23.9670 133.7310 301° West 322 371 11,400 -1,835 Descending FlightAware ADS-B
Sat 10:40:17 PM -23.9360 133.6750 301° West 316 364 10,200 -1,371 Descending FlightAware ADS-B
Sat 10:40:37 PM -24.9519 135.4231 302° West 2,500 -800 Descending Aus ATC (Calculated)
Sat 10:40:47 PM -23.9080 133.6380 310° West 295 339 9,800 10,050 Climbing FlightAware ADS-B
Sat 10:41:17 PM -23.8730 133.6190 334° Northwest 305 351 9,200 -1,350 Descending FlightAware ADS-B
Sat 10:41:27 PM -23.8570 133.6140 344° North 309 356 8,900 -1,500 Descending FlightAware ADS-B
Sat 10:41:57 PM -23.8180 133.6060 344° North 309 356 8,200 -1,440 Descending FlightAware ADS-B
Sat 10:42:17 PM -23.7920 133.6050 358° North 309 356 7,700 -1,200 Descending FlightAware ADS-B
Sat 10:42:37 PM -23.7620 133.6070 North 296 341 7,400 -600 Descending FlightAware ADS-B
Sat 10:43:07 PM -23.7240 133.6160 12° North 269 310 7,200 -500 Descending FlightAware ADS-B
Sat 10:43:32 PM -24.7873 135.2007 307° West 2,500 -600 Descending Aus ATC (Calculated)
Sat 10:43:37 PM -23.6910 133.6320 24° Northeast 243 280 6,900 16,800 Climbing FlightAware ADS-B
Sat 10:43:47 PM -23.6840 133.6400 24° Northeast 237 273 6,700 -960 Descending FlightAware ADS-B
Sat 10:44:02 PM -23.6790 133.6550 70° East 229 264 6,500 -1,200 Descending FlightAware ADS-B
Sat 10:44:32 PM -23.6910 133.6880 112° Southeast 220 253 5,800 -1,309 Descending FlightAware ADS-B
Sat 10:44:57 PM -23.7040 133.7120 121° Southeast 214 246 5,300 -1,091 Descending FlightAware ADS-B
Sat 10:45:27 PM -23.7180 133.7380 120° Southeast 210 242 4,800 -1,091 Descending FlightAware ADS-B
Sat 10:45:52 PM -23.7290 133.7600 119° Southeast 207 238 4,300 -1,091 Descending FlightAware ADS-B
Sat 10:46:22 PM -23.7440 133.7870 121° Southeast 193 222 3,800 -1,100 Descending FlightAware ADS-B
Sat 10:46:32 PM -24.6223 134.9789 309° West 2,500 -1,200 Descending Aus ATC (Calculated)
Sat 10:46:52 PM -23.7580 133.8120 121° Southeast 172 198 3,200 533 Climbing FlightAware ADS-B
Sat 10:47:17 PM -23.7670 133.8300 121° Southeast 153 176 2,900 -764 Descending FlightAware ADS-B
Sat 10:47:47 PM -23.7770 133.8490 120° Southeast 150 173 2,500 -800 Descending FlightAware ADS-B
Sat 10:48:17 PM -23.7880 133.8690 121° Southeast 149 171 2,100 -840 Descending FlightAware ADS-B
Sat 10:48:37 PM -23.7950 133.8810 123° Southeast 149 171 1,800 923 Descending FlightAware ADS-B
Sat 10:48:43 PM -24.4901 134.8018 123° Southeast 2,500 7,000 Climbing Aus ATC (Calculated)

Login

Don't have an account? Register now (free) for customized features, flight alerts, and more!